^^
Saratoga-Weather Station Historical Data
Daily Summary for May 20, 2020 Units:  Both    English   Metric
Daily Weekly Monthly Yearly Custom
  High: Low: Average:
Temperature: 51.1 °F /  10.6 °C 43.9 °F /  6.6 °C 48.7 °F /  9.3 °C
Dew Point: 48.9 °F /  9.4 °C 42.6 °F /  5.9 °C 46.9 °F /  8.3 °C
Humidity: 97% 86% 93%
Wind Speed: 6mph /  9.7km/h - 0.7mph /  1.1km/h
Wind Gust: 11mph /  17.7km/h - -
Wind- - WSW
Pressure: 30.2 in /  1021.3 hPa 30 in /  1016.6 hPa -
Precipitation: 0.01 in /  0.2 mm    
Historical Graphs
 
 
Tabular Data for May 20, 2020
Time Temperature Dew Point Pressure Wind Wind Speed Wind Gust Humidity Rainfall Rate (Hourly) solar
00:12 48 °F /  8.9 °C 46.9 °F /  8.3 °C 30in /  1016.6hPa Calm     96% 0in /  0.0mm 0 W/m2
00:18 48 °F /  8.9 °C 46.9 °F /  8.3 °C 30in /  1016.6hPa Calm     96% 0in /  0.0mm 0 W/m2
00:23 47.8 °F /  8.8 °C 46.8 °F /  8.2 °C 30in /  1016.6hPa Calm     96% 0in /  0.0mm 0 W/m2
00:28 47.8 °F /  8.8 °C 46.8 °F /  8.2 °C 30in /  1016.6hPa Calm     96% 0in /  0.0mm 0 W/m2
00:33 47.8 °F /  8.8 °C 46.8 °F /  8.2 °C 30in /  1016.6hPa Calm     96% 0.01in /  0.2mm 0 W/m2
00:38 47.8 °F /  8.8 °C 46.8 °F /  8.2 °C 30in /  1016.6hPa Calm     96% 0.01in /  0.2mm 0 W/m2
00:43 47.8 °F /  8.8 °C 46.8 °F /  8.2 °C 30in /  1016.6hPa Calm     96% 0.01in /  0.2mm 0 W/m2
00:48 47.8 °F /  8.8 °C 46.8 °F /  8.2 °C 30in /  1016.6hPa Calm     96% 0.01in /  0.2mm 0 W/m2
01:07 47.8 °F /  8.8 °C 46.8 °F /  8.2 °C 30in /  1016.6hPa Calm     96% 0.01in /  0.2mm 0 W/m2
01:12 47.8 °F /  8.8 °C 46.8 °F /  8.2 °C 30in /  1016.6hPa Calm     96% 0.01in /  0.2mm 0 W/m2
01:17 47.8 °F /  8.8 °C 46.8 °F /  8.2 °C 30in /  1016.6hPa Calm     96% 0.01in /  0.2mm 0 W/m2
01:22 47.8 °F /  8.8 °C 46.9 °F /  8.3 °C 30in /  1016.6hPa Calm     97% 0.01in /  0.2mm 0 W/m2
01:27 48 °F /  8.9 °C 46.9 °F /  8.3 °C 30in /  1016.6hPa ENE 2mph /  3.2km/h 2mph /  3.2km/h 96% 0in /  0.0mm 0 W/m2
01:32 48 °F /  8.9 °C 47.1 °F /  8.4 °C 30in /  1016.6hPa Calm   1mph /  1.6km/h 97% 0in /  0.0mm 0 W/m2
01:37 48 °F /  8.9 °C 46.9 °F /  8.3 °C 30in /  1016.9hPa ENE 0.9mph /  1.4km/h 1mph /  1.6km/h 96% 0.01in /  0.2mm 0 W/m2
01:42 48 °F /  8.9 °C 46.9 °F /  8.3 °C 30in /  1016.6hPa Calm     96% 0.01in /  0.2mm 0 W/m2
01:47 48 °F /  8.9 °C 47.1 °F /  8.4 °C 30in /  1016.6hPa Calm     97% 0.01in /  0.2mm 0 W/m2
01:52 48 °F /  8.9 °C 46.9 °F /  8.3 °C 30in /  1016.6hPa Calm     96% 0.01in /  0.2mm 0 W/m2
01:57 47.8 °F /  8.8 °C 46.8 °F /  8.2 °C 30in /  1016.6hPa Calm     96% 0.01in /  0.2mm 0 W/m2
02:02 47.8 °F /  8.8 °C 46.8 °F /  8.2 °C 30in /  1016.6hPa Calm   1mph /  1.6km/h 96% 0.01in /  0.2mm 0 W/m2
02:07 48 °F /  8.9 °C 47.1 °F /  8.4 °C 30in /  1016.6hPa Calm     97% 0.01in /  0.2mm 0 W/m2
02:12 48 °F /  8.9 °C 47.1 °F /  8.4 °C 30in /  1016.6hPa Calm   1mph /  1.6km/h 97% 0.01in /  0.2mm 0 W/m2
02:17 48.4 °F /  9.1 °C 47.5 °F /  8.6 °C 30in /  1016.6hPa Calm   1mph /  1.6km/h 97% 0.01in /  0.2mm 0 W/m2
02:22 48.4 °F /  9.1 °C 47.5 °F /  8.6 °C 30in /  1016.6hPa ESE 0.9mph /  1.4km/h 2mph /  3.2km/h 97% 0.01in /  0.2mm 0 W/m2
02:27 48.4 °F /  9.1 °C 47.5 °F /  8.6 °C 30in /  1016.6hPa Calm   1mph /  1.6km/h 97% 0.01in /  0.2mm 0 W/m2
02:32 48.6 °F /  9.2 °C 47.7 °F /  8.7 °C 30in /  1016.6hPa NE 0.9mph /  1.4km/h 2mph /  3.2km/h 97% 0.01in /  0.2mm 0 W/m2
02:37 48.7 °F /  9.3 °C 47.8 °F /  8.8 °C 30in /  1016.9hPa Calm   2mph /  3.2km/h 97% 0in /  0.0mm 0 W/m2
02:42 48.7 °F /  9.3 °C 47.8 °F /  8.8 °C 30in /  1016.9hPa Calm     97% 0in /  0.0mm 0 W/m2
02:47 48.9 °F /  9.4 °C 48 °F /  8.9 °C 30in /  1016.9hPa Calm   2mph /  3.2km/h 97% 0in /  0.0mm 0 W/m2
02:52 48.9 °F /  9.4 °C 48 °F /  8.9 °C 30in /  1016.6hPa NW 0.9mph /  1.4km/h 1mph /  1.6km/h 97% 0in /  0.0mm 0 W/m2
02:57 48.9 °F /  9.4 °C 48 °F /  8.9 °C 30in /  1016.6hPa Calm     97% 0in /  0.0mm 0 W/m2
03:02 48.9 °F /  9.4 °C 48 °F /  8.9 °C 30in /  1016.6hPa Calm   2mph /  3.2km/h 97% 0in /  0.0mm 0 W/m2
03:07 48.9 °F /  9.4 °C 48 °F /  8.9 °C 30in /  1016.9hPa NW 0.9mph /  1.4km/h 2mph /  3.2km/h 97% 0in /  0.0mm 0 W/m2
03:12 49.1 °F /  9.5 °C 48.2 °F /  9 °C 30in /  1016.9hPa Calm   1mph /  1.6km/h 97% 0in /  0.0mm 0 W/m2
03:17 49.1 °F /  9.5 °C 48 °F /  8.9 °C 30in /  1016.9hPa Calm   1mph /  1.6km/h 96% 0in /  0.0mm 0 W/m2
03:22 49.1 °F /  9.5 °C 48 °F /  8.9 °C 30in /  1016.9hPa Calm     96% 0in /  0.0mm 0 W/m2
03:27 48.9 °F /  9.4 °C 47.8 °F /  8.8 °C 30in /  1016.9hPa Calm     96% 0in /  0.0mm 0 W/m2
03:32 48.9 °F /  9.4 °C 47.8 °F /  8.8 °C 30in /  1016.9hPa ESE 0.9mph /  1.4km/h 2mph /  3.2km/h 96% 0in /  0.0mm 0 W/m2
03:37 48.9 °F /  9.4 °C 47.8 °F /  8.8 °C 30in /  1016.9hPa ESE 2mph /  3.2km/h 2mph /  3.2km/h 96% 0in /  0.0mm 0 W/m2
03:42 49.1 °F /  9.5 °C 48 °F /  8.9 °C 30in /  1016.9hPa West 0.9mph /  1.4km/h 4mph /  6.4km/h 96% 0in /  0.0mm 0 W/m2
03:47 49.1 °F /  9.5 °C 48 °F /  8.9 °C 30in /  1016.9hPa Calm   1mph /  1.6km/h 96% 0in /  0.0mm 0 W/m2
03:52 49.3 °F /  9.6 °C 48.2 °F /  9 °C 30in /  1016.9hPa Calm   4mph /  6.4km/h 96% 0in /  0.0mm 0 W/m2
03:57 49.3 °F /  9.6 °C 48.2 °F /  9 °C 30in /  1016.9hPa Calm   1mph /  1.6km/h 96% 0in /  0.0mm 0 W/m2
04:02 49.3 °F /  9.6 °C 48.2 °F /  9 °C 30in /  1016.9hPa Calm   2mph /  3.2km/h 96% 0in /  0.0mm 0 W/m2
04:20 49.1 °F /  9.5 °C 48 °F /  8.9 °C 30in /  1016.9hPa SW 2mph /  3.2km/h 4mph /  6.4km/h 96% 0in /  0.0mm 0 W/m2
04:25 49.1 °F /  9.5 °C 48 °F /  8.9 °C 30in /  1016.9hPa Calm   1mph /  1.6km/h 96% 0in /  0.0mm 0 W/m2
04:30 48.9 °F /  9.4 °C 47.8 °F /  8.8 °C 30in /  1016.9hPa Calm   4mph /  6.4km/h 96% 0in /  0.0mm 0 W/m2
04:35 48.9 °F /  9.4 °C 47.8 °F /  8.8 °C 30in /  1016.9hPa Calm   2mph /  3.2km/h 96% 0in /  0.0mm 0 W/m2
04:40 48.7 °F /  9.3 °C 47.7 °F /  8.7 °C 30in /  1017.3hPa Calm     96% 0in /  0.0mm 0 W/m2
04:45 48.7 °F /  9.3 °C 47.7 °F /  8.7 °C 30in /  1017.3hPa Calm   2mph /  3.2km/h 96% 0in /  0.0mm 0 W/m2
04:50 48.7 °F /  9.3 °C 47.7 °F /  8.7 °C 30in /  1017.3hPa Calm     96% 0in /  0.0mm 0 W/m2
05:07 48.7 °F /  9.3 °C 47.7 °F /  8.7 °C 30in /  1016.9hPa Calm     96% 0in /  0.0mm 0 W/m2
05:12 48.6 °F /  9.2 °C 47.1 °F /  8.4 °C 30in /  1016.9hPa Calm   1mph /  1.6km/h 95% 0in /  0.0mm 0 W/m2
05:17 48.6 °F /  9.2 °C 47.5 °F /  8.6 °C 30in /  1016.9hPa Calm   2mph /  3.2km/h 96% 0in /  0.0mm 0 W/m2
05:22 48.6 °F /  9.2 °C 47.5 °F /  8.6 °C 30in /  1016.9hPa Calm   2mph /  3.2km/h 96% 0in /  0.0mm 0 W/m2
05:27 48.6 °F /  9.2 °C 47.5 °F /  8.6 °C 30in /  1016.9hPa Calm     96% 0in /  0.0mm 0 W/m2
05:32 48.4 °F /  9.1 °C 47.3 °F /  8.5 °C 30in /  1017.3hPa Calm     96% 0in /  0.0mm 0 W/m2
05:37 48.4 °F /  9.1 °C 46.9 °F /  8.3 °C 30in /  1016.9hPa Calm   2mph /  3.2km/h 95% 0in /  0.0mm 0 W/m2
05:42 48.4 °F /  9.1 °C 47.3 °F /  8.5 °C 30in /  1016.9hPa Calm     96% 0in /  0.0mm 0 W/m2
05:47 48.4 °F /  9.1 °C 47.3 °F /  8.5 °C 30in /  1016.9hPa Calm     96% 0in /  0.0mm 0 W/m2
05:52 48.2 °F /  9 °C 46.8 °F /  8.2 °C 30in /  1016.9hPa Calm     95% 0in /  0.0mm 0 W/m2
05:57 48 °F /  8.9 °C 46.6 °F /  8.1 °C 30in /  1017.3hPa Calm     95% 0in /  0.0mm 0 W/m2
06:02 47.8 °F /  8.8 °C 46.4 °F /  8 °C 30in /  1017.3hPa Calm   1mph /  1.6km/h 95% 0in /  0.0mm 0 W/m2
06:21 47.5 °F /  8.6 °C 46.4 °F /  8 °C 30in /  1017.3hPa Calm     96% 0in /  0.0mm 0 W/m2
06:26 47.3 °F /  8.5 °C 46.2 °F /  7.9 °C 30in /  1017.3hPa East 2mph /  3.2km/h 2mph /  3.2km/h 96% 0in /  0.0mm 0 W/m2
06:31 47.1 °F /  8.4 °C 46 °F /  7.8 °C 30in /  1017.3hPa East 0.9mph /  1.4km/h 1mph /  1.6km/h 96% 0in /  0.0mm 0 W/m2
06:36 47.1 °F /  8.4 °C 46 °F /  7.8 °C 30in /  1017.3hPa Calm   1mph /  1.6km/h 96% 0in /  0.0mm 0 W/m2
06:41 47.1 °F /  8.4 °C 46 °F /  7.8 °C 30in /  1017.3hPa Calm     96% 0in /  0.0mm 0 W/m2
06:46 47.1 °F /  8.4 °C 46 °F /  7.8 °C 30in /  1017.3hPa Calm     96% 0in /  0.0mm 0 W/m2
07:04 46.9 °F /  8.3 °C 45.9 °F /  7.7 °C 30in /  1017.3hPa Calm     96% 0in /  0.0mm 0 W/m2
07:09 46.9 °F /  8.3 °C 45.9 °F /  7.7 °C 30in /  1017.3hPa Calm     96% 0in /  0.0mm 0 W/m2
07:14 46.8 °F /  8.2 °C 45.7 °F /  7.6 °C 30in /  1017.3hPa Calm     96% 0in /  0.0mm 0 W/m2
07:19 46.8 °F /  8.2 °C 45.7 °F /  7.6 °C 30.1in /  1017.6hPa Calm     96% 0in /  0.0mm 0 W/m2
07:24 46.8 °F /  8.2 °C 45.7 °F /  7.6 °C 30in /  1017.3hPa Calm   3mph /  4.8km/h 96% 0in /  0.0mm 0 W/m2
07:43 47.1 °F /  8.4 °C 46.4 °F /  8 °C 30.1in /  1017.6hPa NNW 0.9mph /  1.4km/h 3mph /  4.8km/h 97% 0in /  0.0mm 0 W/m2
07:48 47.5 °F /  8.6 °C 46.8 °F /  8.2 °C 30.1in /  1017.6hPa Calm     97% 0in /  0.0mm 0 W/m2
07:53 47.7 °F /  8.7 °C 46.9 °F /  8.3 °C 30.1in /  1017.6hPa WSW 2mph /  3.2km/h 2mph /  3.2km/h 97% 0in /  0.0mm 0 W/m2
07:58 47.8 °F /  8.8 °C 46.9 °F /  8.3 °C 30.1in /  1017.6hPa NW 2mph /  3.2km/h 2mph /  3.2km/h 97% 0in /  0.0mm 0 W/m2
08:03 48 °F /  8.9 °C 47.1 °F /  8.4 °C 30.1in /  1017.6hPa West 2mph /  3.2km/h 2mph /  3.2km/h 97% 0in /  0.0mm 0 W/m2
08:22 48.4 °F /  9.1 °C 47.5 °F /  8.6 °C 30.1in /  1017.6hPa Calm   3mph /  4.8km/h 97% 0in /  0.0mm 0 W/m2
08:27 48.4 °F /  9.1 °C 47.3 °F /  8.5 °C 30.1in /  1018.0hPa West 2mph /  3.2km/h 3mph /  4.8km/h 96% 0in /  0.0mm 0 W/m2
08:32 48.6 °F /  9.2 °C 47.5 °F /  8.6 °C 30.1in /  1017.6hPa WNW 2mph /  3.2km/h 3mph /  4.8km/h 96% 0in /  0.0mm 0 W/m2
08:37 48.6 °F /  9.2 °C 47.5 °F /  8.6 °C 30.1in /  1017.6hPa West 0.9mph /  1.4km/h 4mph /  6.4km/h 96% 0in /  0.0mm 0 W/m2
08:42 48.7 °F /  9.3 °C 47.7 °F /  8.7 °C 30.1in /  1017.6hPa WNW 0.9mph /  1.4km/h 3mph /  4.8km/h 96% 0in /  0.0mm 0 W/m2
08:47 48.7 °F /  9.3 °C 47.3 °F /  8.5 °C 30.1in /  1018.0hPa NW 2mph /  3.2km/h 2mph /  3.2km/h 95% 0in /  0.0mm 5 W/m2
08:52 48.9 °F /  9.4 °C 47.5 °F /  8.6 °C 30.1in /  1017.6hPa Calm   2mph /  3.2km/h 95% 0in /  0.0mm 7 W/m2
08:57 48.9 °F /  9.4 °C 47.5 °F /  8.6 °C 30.1in /  1018.0hPa NW 2mph /  3.2km/h 2mph /  3.2km/h 95% 0in /  0.0mm 9 W/m2
09:02 48.9 °F /  9.4 °C 47.5 °F /  8.6 °C 30.1in /  1018.0hPa Calm   1mph /  1.6km/h 95% 0in /  0.0mm 12 W/m2
09:07 48.9 °F /  9.4 °C 47.5 °F /  8.6 °C 30.1in /  1018.0hPa Calm     95% 0in /  0.0mm 14 W/m2
09:12 48.9 °F /  9.4 °C 47.3 °F /  8.5 °C 30.1in /  1018.0hPa West 0.9mph /  1.4km/h 2mph /  3.2km/h 94% 0in /  0.0mm 16 W/m2
09:17 48.9 °F /  9.4 °C 47.3 °F /  8.5 °C 30.1in /  1018.0hPa West 0.9mph /  1.4km/h 1mph /  1.6km/h 94% 0in /  0.0mm 21 W/m2
09:23 48.7 °F /  9.3 °C 47.1 °F /  8.4 °C 30.1in /  1018.0hPa West 0.9mph /  1.4km/h 2mph /  3.2km/h 94% 0in /  0.0mm 26 W/m2
09:28 48.6 °F /  9.2 °C 46.9 °F /  8.3 °C 30.1in /  1018.0hPa Calm   1mph /  1.6km/h 94% 0in /  0.0mm 30 W/m2
09:33 48.4 °F /  9.1 °C 46.8 °F /  8.2 °C 30.1in /  1018.3hPa Calm   2mph /  3.2km/h 94% 0in /  0.0mm 35 W/m2
09:38 48.4 °F /  9.1 °C 46.9 °F /  8.3 °C 30.1in /  1018.3hPa Calm   1mph /  1.6km/h 95% 0in /  0.0mm 39 W/m2
09:43 48.4 °F /  9.1 °C 46.9 °F /  8.3 °C 30.1in /  1018.3hPa Calm     95% 0in /  0.0mm 44 W/m2
09:48 48.6 °F /  9.2 °C 47.1 °F /  8.4 °C 30.1in /  1018.3hPa NNW 2mph /  3.2km/h 3mph /  4.8km/h 95% 0in /  0.0mm 49 W/m2
09:53 48.7 °F /  9.3 °C 47.3 °F /  8.5 °C 30.1in /  1018.3hPa Calm   2mph /  3.2km/h 95% 0in /  0.0mm 53 W/m2
10:09 49.3 °F /  9.6 °C 47.8 °F /  8.8 °C 30.1in /  1018.6hPa NNW 0.9mph /  1.4km/h 3mph /  4.8km/h 95% 0in /  0.0mm 67 W/m2
10:14 49.5 °F /  9.7 °C 48 °F /  8.9 °C 30.1in /  1018.6hPa Calm   3mph /  4.8km/h 95% 0in /  0.0mm 79 W/m2
10:19 49.6 °F /  9.8 °C 48 °F /  8.9 °C 30.1in /  1018.6hPa Calm   2mph /  3.2km/h 94% 0in /  0.0mm 84 W/m2
10:24 49.6 °F /  9.8 °C 48 °F /  8.9 °C 30.1in /  1018.6hPa WNW 2.9mph /  4.7km/h 3mph /  4.8km/h 94% 0in /  0.0mm 88 W/m2
10:29 49.8 °F /  9.9 °C 48.2 °F /  9 °C 30.1in /  1018.6hPa NNW 0.9mph /  1.4km/h 3mph /  4.8km/h 94% 0in /  0.0mm 95 W/m2
10:48 50.2 °F /  10.1 °C 48.6 °F /  9.2 °C 30.1in /  1018.6hPa WNW 2mph /  3.2km/h 3mph /  4.8km/h 94% 0in /  0.0mm 98 W/m2
10:53 50.4 °F /  10.2 °C 48.7 °F /  9.3 °C 30.1in /  1019.0hPa SW 0.9mph /  1.4km/h 2mph /  3.2km/h 94% 0in /  0.0mm 98 W/m2
10:58 50.4 °F /  10.2 °C 48.4 °F /  9.1 °C 30.1in /  1019.0hPa NW 0.9mph /  1.4km/h 2mph /  3.2km/h 93% 0in /  0.0mm 107 W/m2
11:03 50.4 °F /  10.2 °C 48.4 °F /  9.1 °C 30.1in /  1019.0hPa Calm   4mph /  6.4km/h 93% 0in /  0.0mm 105 W/m2
11:08 50.5 °F /  10.3 °C 48.6 °F /  9.2 °C 30.1in /  1019.0hPa NNW 0.9mph /  1.4km/h 2mph /  3.2km/h 93% 0in /  0.0mm 116 W/m2
11:13 50.5 °F /  10.3 °C 48.6 °F /  9.2 °C 30.1in /  1019.0hPa NW 0.9mph /  1.4km/h 4mph /  6.4km/h 93% 0in /  0.0mm 113 W/m2
11:18 50.7 °F /  10.4 °C 48.7 °F /  9.3 °C 30.1in /  1019.0hPa North 2mph /  3.2km/h 3mph /  4.8km/h 93% 0in /  0.0mm 113 W/m2
11:23 50.7 °F /  10.4 °C 48.6 °F /  9.2 °C 30.1in /  1019.0hPa WNW 0.9mph /  1.4km/h 2mph /  3.2km/h 92% 0in /  0.0mm 120 W/m2
11:28 50.9 °F /  10.5 °C 48.7 °F /  9.3 °C 30.1in /  1018.6hPa NNE 2mph /  3.2km/h 6mph /  9.7km/h 92% 0in /  0.0mm 120 W/m2
11:33 51.1 °F /  10.6 °C 48.9 °F /  9.4 °C 30.1in /  1019.0hPa ENE 0.9mph /  1.4km/h 4mph /  6.4km/h 92% 0in /  0.0mm 120 W/m2
11:38 51.1 °F /  10.6 °C 48.9 °F /  9.4 °C 30.1in /  1019.0hPa WSW 2.9mph /  4.7km/h 6mph /  9.7km/h 92% 0in /  0.0mm 109 W/m2
11:43 51.1 °F /  10.6 °C 48.6 °F /  9.2 °C 30.1in /  1018.6hPa NW 2mph /  3.2km/h 7mph /  11.3km/h 91% 0in /  0.0mm 83 W/m2
11:48 51.1 °F /  10.6 °C 48.6 °F /  9.2 °C 30.1in /  1018.6hPa SW 0.9mph /  1.4km/h 8mph /  12.9km/h 91% 0in /  0.0mm 70 W/m2
11:53 51.1 °F /  10.6 °C 48.6 °F /  9.2 °C 30.1in /  1018.6hPa WNW 0.9mph /  1.4km/h 3mph /  4.8km/h 91% 0in /  0.0mm 63 W/m2
11:58 51.1 °F /  10.6 °C 48.6 °F /  9.2 °C 30.1in /  1019.0hPa West 0.9mph /  1.4km/h 8mph /  12.9km/h 91% 0in /  0.0mm 54 W/m2
12:03 51.1 °F /  10.6 °C 48.6 °F /  9.2 °C 30.1in /  1019.0hPa East 2mph /  3.2km/h 2mph /  3.2km/h 91% 0in /  0.0mm 58 W/m2
12:08 51.1 °F /  10.6 °C 48.6 °F /  9.2 °C 30.1in /  1018.6hPa SW 2mph /  3.2km/h 3mph /  4.8km/h 91% 0in /  0.0mm 58 W/m2
12:13 51.1 °F /  10.6 °C 48.2 °F /  9 °C 30.1in /  1018.6hPa NNW 2mph /  3.2km/h 4mph /  6.4km/h 90% 0in /  0.0mm 62 W/m2
12:18 51.1 °F /  10.6 °C 48.2 °F /  9 °C 30.1in /  1018.6hPa Calm   3mph /  4.8km/h 90% 0in /  0.0mm 53 W/m2
12:23 51.1 °F /  10.6 °C 48.2 °F /  9 °C 30.1in /  1018.6hPa West 2mph /  3.2km/h 3mph /  4.8km/h 90% 0in /  0.0mm 53 W/m2
12:28 50.9 °F /  10.5 °C 48 °F /  8.9 °C 30.1in /  1018.6hPa West 6mph /  9.7km/h 11mph /  17.7km/h 90% 0in /  0.0mm 40 W/m2
12:33 50.7 °F /  10.4 °C 47.8 °F /  8.8 °C 30.1in /  1018.6hPa WNW 2mph /  3.2km/h 3mph /  4.8km/h 90% 0in /  0.0mm 60 W/m2
12:38 50.7 °F /  10.4 °C 47.8 °F /  8.8 °C 30.1in /  1018.6hPa WNW 2.9mph /  4.7km/h 11mph /  17.7km/h 90% 0in /  0.0mm 104 W/m2
12:43 50.9 °F /  10.5 °C 48 °F /  8.9 °C 30.1in /  1018.6hPa NNW 0.9mph /  1.4km/h 1mph /  1.6km/h 90% 0in /  0.0mm 84 W/m2
12:48 50.9 °F /  10.5 °C 48 °F /  8.9 °C 30.1in /  1018.6hPa South 2mph /  3.2km/h 5mph /  8km/h 90% 0in /  0.0mm 53 W/m2
12:53 51.1 °F /  10.6 °C 48.2 °F /  9 °C 30.1in /  1018.6hPa Calm   3mph /  4.8km/h 90% 0in /  0.0mm 46 W/m2
12:58 51.1 °F /  10.6 °C 48.2 °F /  9 °C 30.1in /  1018.6hPa WNW 2mph /  3.2km/h 7mph /  11.3km/h 90% 0in /  0.0mm 72 W/m2
13:03 51.1 °F /  10.6 °C 48.2 °F /  9 °C 30.1in /  1018.6hPa ENE 0.9mph /  1.4km/h 2mph /  3.2km/h 90% 0in /  0.0mm 69 W/m2
13:08 51.1 °F /  10.6 °C 48.2 °F /  9 °C 30.1in /  1018.3hPa SSW 2mph /  3.2km/h 7mph /  11.3km/h 90% 0in /  0.0mm 76 W/m2
13:13 51.1 °F /  10.6 °C 48.2 °F /  9 °C 30.1in /  1018.6hPa NW 2.9mph /  4.7km/h 3mph /  4.8km/h 90% 0in /  0.0mm 83 W/m2
13:18 51.1 °F /  10.6 °C 48.2 °F /  9 °C 30.1in /  1018.6hPa WNW 4.9mph /  7.9km/h 5mph /  8km/h 90% 0in /  0.0mm 40 W/m2
13:23 51.1 °F /  10.6 °C 48.2 °F /  9 °C 30.1in /  1018.6hPa West 0.9mph /  1.4km/h 3mph /  4.8km/h 90% 0in /  0.0mm 47 W/m2
13:28 51.1 °F /  10.6 °C 48.2 °F /  9 °C 30.1in /  1018.6hPa NNW 2mph /  3.2km/h 5mph /  8km/h 90% 0in /  0.0mm 49 W/m2
13:46 51.1 °F /  10.6 °C 48.2 °F /  9 °C 30.1in /  1018.3hPa NW 0.9mph /  1.4km/h 1mph /  1.6km/h 90% 0in /  0.0mm 77 W/m2
13:51 51.1 °F /  10.6 °C 48 °F /  8.9 °C 30.1in /  1018.3hPa NW 2.9mph /  4.7km/h 3mph /  4.8km/h 89% 0in /  0.0mm 72 W/m2
13:56 51.1 °F /  10.6 °C 48 °F /  8.9 °C 30.1in /  1018.3hPa Calm   3mph /  4.8km/h 89% 0in /  0.0mm 70 W/m2
14:01 51.1 °F /  10.6 °C 48 °F /  8.9 °C 30.1in /  1018.3hPa Calm   1mph /  1.6km/h 89% 0in /  0.0mm 69 W/m2
14:06 51.1 °F /  10.6 °C 48 °F /  8.9 °C 30.1in /  1018.3hPa NNE 2mph /  3.2km/h 4mph /  6.4km/h 89% 0in /  0.0mm 65 W/m2
14:11 51.1 °F /  10.6 °C 48 °F /  8.9 °C 30.1in /  1018.6hPa NNW 4mph /  6.4km/h 5mph /  8km/h 89% 0in /  0.0mm 63 W/m2
14:16 51.1 °F /  10.6 °C 47.7 °F /  8.7 °C 30.1in /  1018.6hPa NW 2mph /  3.2km/h 7mph /  11.3km/h 88% 0in /  0.0mm 54 W/m2
14:33 51.1 °F /  10.6 °C 47.7 °F /  8.7 °C 30.1in /  1018.6hPa Calm   2mph /  3.2km/h 88% 0in /  0.0mm 51 W/m2
14:38 51.1 °F /  10.6 °C 47.3 °F /  8.5 °C 30.1in /  1018.6hPa Calm   5mph /  8km/h 87% 0in /  0.0mm 42 W/m2
14:43 51.1 °F /  10.6 °C 47.3 °F /  8.5 °C 30.1in /  1018.6hPa WNW 4.9mph /  7.9km/h 8mph /  12.9km/h 87% 0in /  0.0mm 70 W/m2
14:48 50.9 °F /  10.5 °C 46.9 °F /  8.3 °C 30.1in /  1018.3hPa Calm   2mph /  3.2km/h 86% 0in /  0.0mm 56 W/m2
14:53 50.9 °F /  10.5 °C 46.9 °F /  8.3 °C 30.1in /  1018.6hPa North 0.9mph /  1.4km/h 3mph /  4.8km/h 86% 0in /  0.0mm 72 W/m2
14:58 50.9 °F /  10.5 °C 46.9 °F /  8.3 °C 30.1in /  1018.6hPa Calm   4mph /  6.4km/h 86% 0in /  0.0mm 77 W/m2
15:03 50.9 °F /  10.5 °C 46.9 °F /  8.3 °C 30.1in /  1018.6hPa WNW 0.9mph /  1.4km/h 1mph /  1.6km/h 86% 0in /  0.0mm 70 W/m2
15:08 50.9 °F /  10.5 °C 46.9 °F /  8.3 °C 30.1in /  1018.6hPa South 2.9mph /  4.7km/h 3mph /  4.8km/h 86% 0in /  0.0mm 54 W/m2
15:13 51.1 °F /  10.6 °C 47.1 °F /  8.4 °C 30.1in /  1018.6hPa Calm   5mph /  8km/h 86% 0in /  0.0mm 58 W/m2
15:18 51.1 °F /  10.6 °C 47.1 °F /  8.4 °C 30.1in /  1018.6hPa North 2.9mph /  4.7km/h 3mph /  4.8km/h 86% 0in /  0.0mm 74 W/m2
15:23 51.1 °F /  10.6 °C 47.1 °F /  8.4 °C 30.1in /  1018.6hPa WNW 4mph /  6.4km/h 4mph /  6.4km/h 86% 0in /  0.0mm 42 W/m2
15:28 51.1 °F /  10.6 °C 47.1 °F /  8.4 °C 30.1in /  1018.6hPa WNW 0.9mph /  1.4km/h 3mph /  4.8km/h 86% 0in /  0.0mm 32 W/m2
15:33 51.1 °F /  10.6 °C 47.1 °F /  8.4 °C 30.1in /  1019.0hPa West 4mph /  6.4km/h 5mph /  8km/h 86% 0in /  0.0mm 21 W/m2
15:38 50.7 °F /  10.4 °C 46.8 °F /  8.2 °C 30.1in /  1019.0hPa WNW 2.9mph /  4.7km/h 6mph /  9.7km/h 86% 0in /  0.0mm 21 W/m2
15:43 50.7 °F /  10.4 °C 46.8 °F /  8.2 °C 30.1in /  1019.0hPa West 0.9mph /  1.4km/h 2mph /  3.2km/h 86% 0in /  0.0mm 54 W/m2
15:48 50.7 °F /  10.4 °C 46.9 °F /  8.3 °C 30.1in /  1019.0hPa SW 0.9mph /  1.4km/h 5mph /  8km/h 87% 0in /  0.0mm 26 W/m2
15:53 50.5 °F /  10.3 °C 46.8 °F /  8.2 °C 30.1in /  1019.0hPa Calm   1mph /  1.6km/h 87% 0in /  0.0mm 21 W/m2
15:58 50.5 °F /  10.3 °C 46.8 °F /  8.2 °C 30.1in /  1019.0hPa West 3mph /  4.8km/h 3mph /  4.8km/h 87% 0in /  0.0mm 14 W/m2
16:03 50.4 °F /  10.2 °C 46.9 °F /  8.3 °C 30.1in /  1019.3hPa SSE 0.9mph /  1.4km/h 1mph /  1.6km/h 88% 0in /  0.0mm 11 W/m2
16:08 50.2 °F /  10.1 °C 46.8 °F /  8.2 °C 30.1in /  1019.0hPa SSW 0.9mph /  1.4km/h 1mph /  1.6km/h 88% 0in /  0.0mm 12 W/m2
16:13 50.2 °F /  10.1 °C 46.8 °F /  8.2 °C 30.1in /  1019.3hPa Calm   1mph /  1.6km/h 88% 0in /  0.0mm 12 W/m2
16:18 50 °F /  10 °C 46.9 °F /  8.3 °C 30.1in /  1019.3hPa Calm   2mph /  3.2km/h 89% 0in /  0.0mm 7 W/m2
16:23 49.8 °F /  9.9 °C 46.8 °F /  8.2 °C 30.1in /  1019.3hPa Calm   2mph /  3.2km/h 89% 0in /  0.0mm 5 W/m2
16:28 49.6 °F /  9.8 °C 46.6 °F /  8.1 °C 30.1in /  1019.3hPa West 2mph /  3.2km/h 3mph /  4.8km/h 89% 0in /  0.0mm 7 W/m2
16:33 49.6 °F /  9.8 °C 46.6 °F /  8.1 °C 30.1in /  1019.3hPa Calm   1mph /  1.6km/h 89% 0in /  0.0mm 5 W/m2
16:38 49.5 °F /  9.7 °C 46.4 °F /  8 °C 30.1in /  1019.3hPa Calm   3mph /  4.8km/h 89% 0in /  0.0mm 5 W/m2
16:43 49.5 °F /  9.7 °C 46.4 °F /  8 °C 30.1in /  1019.3hPa Calm     89% 0in /  0.0mm 0 W/m2
16:48 49.3 °F /  9.6 °C 46.4 °F /  8 °C 30.1in /  1019.3hPa Calm   1mph /  1.6km/h 90% 0in /  0.0mm 0 W/m2
16:53 49.1 °F /  9.5 °C 46.2 °F /  7.9 °C 30.1in /  1019.6hPa Calm     90% 0in /  0.0mm 0 W/m2
16:58 48.9 °F /  9.4 °C 46 °F /  7.8 °C 30.1in /  1019.6hPa Calm   1mph /  1.6km/h 90% 0in /  0.0mm 0 W/m2
17:03 48.7 °F /  9.3 °C 45.9 °F /  7.7 °C 30.1in /  1019.6hPa Calm   1mph /  1.6km/h 90% 0in /  0.0mm 0 W/m2
17:08 48.7 °F /  9.3 °C 46.2 °F /  7.9 °C 30.1in /  1019.6hPa Calm   1mph /  1.6km/h 91% 0in /  0.0mm 0 W/m2
17:13 48.6 °F /  9.2 °C 46 °F /  7.8 °C 30.1in /  1019.6hPa Calm   2mph /  3.2km/h 91% 0in /  0.0mm 0 W/m2
17:18 48.4 °F /  9.1 °C 45.9 °F /  7.7 °C 30.1in /  1019.6hPa WNW 0.9mph /  1.4km/h 1mph /  1.6km/h 91% 0in /  0.0mm 0 W/m2
17:38 47.8 °F /  8.8 °C 45.3 °F /  7.4 °C 30.1in /  1020.0hPa Calm     91% 0in /  0.0mm 0 W/m2
17:43 47.5 °F /  8.6 °C 45 °F /  7.2 °C 30.1in /  1020.0hPa Calm   1mph /  1.6km/h 91% 0in /  0.0mm 0 W/m2
17:48 46.9 °F /  8.3 °C 44.4 °F /  6.9 °C 30.1in /  1020.3hPa Calm     91% 0in /  0.0mm 0 W/m2
17:53 46.6 °F /  8.1 °C 44.1 °F /  6.7 °C 30.1in /  1020.0hPa Calm   1mph /  1.6km/h 91% 0in /  0.0mm 0 W/m2
17:58 46.2 °F /  7.9 °C 44.1 °F /  6.7 °C 30.1in /  1020.3hPa Calm     92% 0in /  0.0mm 0 W/m2
18:03 46 °F /  7.8 °C 43.9 °F /  6.6 °C 30.1in /  1020.3hPa Calm   1mph /  1.6km/h 92% 0in /  0.0mm 0 W/m2
18:08 45.9 °F /  7.7 °C 43.9 °F /  6.6 °C 30.1in /  1020.3hPa Calm   2mph /  3.2km/h 93% 0in /  0.0mm 0 W/m2
18:13 45.9 °F /  7.7 °C 43.9 °F /  6.6 °C 30.1in /  1020.3hPa Calm   1mph /  1.6km/h 93% 0in /  0.0mm 0 W/m2
18:18 45.9 °F /  7.7 °C 44.2 °F /  6.8 °C 30.1in /  1020.3hPa Calm   1mph /  1.6km/h 94% 0in /  0.0mm 0 W/m2
18:23 45.9 °F /  7.7 °C 44.2 °F /  6.8 °C 30.1in /  1020.3hPa Calm   1mph /  1.6km/h 94% 0in /  0.0mm 0 W/m2
18:28 45.9 °F /  7.7 °C 44.2 °F /  6.8 °C 30.1in /  1020.3hPa Calm   2mph /  3.2km/h 94% 0in /  0.0mm 0 W/m2
18:33 45.9 °F /  7.7 °C 44.2 °F /  6.8 °C 30.1in /  1020.3hPa Calm   1mph /  1.6km/h 94% 0in /  0.0mm 0 W/m2
18:38 45.7 °F /  7.6 °C 44.1 °F /  6.7 °C 30.1in /  1020.7hPa Calm   2mph /  3.2km/h 94% 0in /  0.0mm 0 W/m2
18:43 45.3 °F /  7.4 °C 43.7 °F /  6.5 °C 30.1in /  1020.7hPa SW 0.9mph /  1.4km/h 1mph /  1.6km/h 94% 0in /  0.0mm 0 W/m2
18:48 45.1 °F /  7.3 °C 43.5 °F /  6.4 °C 30.1in /  1020.7hPa Calm   1mph /  1.6km/h 94% 0in /  0.0mm 0 W/m2
18:53 45 °F /  7.2 °C 43.3 °F /  6.3 °C 30.1in /  1020.7hPa Calm   1mph /  1.6km/h 94% 0in /  0.0mm 0 W/m2
19:13 44.2 °F /  6.8 °C 43 °F /  6.1 °C 30.2in /  1021.0hPa Calm     95% 0in /  0.0mm 0 W/m2
19:18 44.4 °F /  6.9 °C 43.2 °F /  6.2 °C 30.2in /  1021.0hPa Calm   2mph /  3.2km/h 95% 0in /  0.0mm 0 W/m2
19:23 44.4 °F /  6.9 °C 43.2 °F /  6.2 °C 30.2in /  1021.0hPa Calm     95% 0in /  0.0mm 0 W/m2
19:28 44.4 °F /  6.9 °C 43.2 °F /  6.2 °C 30.2in /  1021.0hPa Calm     95% 0in /  0.0mm 0 W/m2
19:33 44.2 °F /  6.8 °C 43 °F /  6.1 °C 30.2in /  1021.0hPa Calm     95% 0in /  0.0mm 0 W/m2
19:38 44.2 °F /  6.8 °C 43 °F /  6.1 °C 30.2in /  1021.0hPa ESE 0.9mph /  1.4km/h 1mph /  1.6km/h 95% 0in /  0.0mm 0 W/m2
19:43 44.1 °F /  6.7 °C 42.8 °F /  6 °C 30.2in /  1021.0hPa Calm   2mph /  3.2km/h 95% 0in /  0.0mm 0 W/m2
19:49 44.1 °F /  6.7 °C 42.8 °F /  6 °C 30.2in /  1021.3hPa Calm   1mph /  1.6km/h 95% 0in /  0.0mm 0 W/m2
19:54 44.1 °F /  6.7 °C 43 °F /  6.1 °C 30.2in /  1021.0hPa Calm   1mph /  1.6km/h 96% 0in /  0.0mm 0 W/m2
19:59 44.1 °F /  6.7 °C 43 °F /  6.1 °C 30.2in /  1021.3hPa Calm   1mph /  1.6km/h 96% 0in /  0.0mm 0 W/m2
20:04 44.1 °F /  6.7 °C 42.8 °F /  6 °C 30.2in /  1021.0hPa East 0.9mph /  1.4km/h 1mph /  1.6km/h 95% 0in /  0.0mm 0 W/m2
20:09 43.9 °F /  6.6 °C 42.6 °F /  5.9 °C 30.2in /  1021.3hPa East 0.9mph /  1.4km/h 2mph /  3.2km/h 95% 0in /  0.0mm 0 W/m2
Juneau County Weather
Compliments of Weather Underground - 2 mb